Time;durP1;ratioP1;P1;durP2;ratioP2;P2;SDS_P1;SDS_P2;PMS_P1;PMS_P2;Temp;Humidity;BMP_temperature;BMP_pressure;BME280_temperature;BME280_humidity;BME280_pressure;Samples;Min_cycle;Max_cycle;Signal;HPM_P1;HPM_P2
2022/09/14 00:01:23;;;;;;;9.65;4.57;;;;;;;7.41;100.00;100726.94;4989270;28;20472;-75
2022/09/14 00:03:53;;;;;;;6.93;3.97;;;;;;;7.29;100.00;100722.81;4982047;28;20048;-75
2022/09/14 00:06:19;;;;;;;11.07;4.05;;;;;;;7.19;100.00;100714.88;5004658;28;20068;-76
2022/09/14 00:08:44;;;;;;;6.50;3.53;;;;;;;7.18;100.00;100725.75;4989712;28;20046;-76
2022/09/14 00:11:13;;;;;;;6.45;3.53;;;;;;;7.12;100.00;100721.84;4974506;28;20107;-76
2022/09/14 00:13:43;;;;;;;7.28;3.67;;;;;;;7.10;100.00;100720.31;4990343;28;20042;-76
2022/09/14 00:16:20;;;;;;;25.35;4.80;;;;;;;7.03;100.00;100720.91;5024433;28;20026;-75
2022/09/14 00:18:52;;;;;;;9.40;3.83;;;;;;;7.12;100.00;100721.84;5003892;28;20481;-75
2022/09/14 00:21:19;;;;;;;8.95;3.88;;;;;;;7.14;100.00;100724.34;4992352;28;20034;-77
2022/09/14 00:23:44;;;;;;;8.93;4.40;;;;;;;6.99;100.00;100724.91;4996296;28;20034;-75
2022/09/14 00:26:13;;;;;;;10.98;4.45;;;;;;;6.80;100.00;100717.03;5007863;28;20038;-75
2022/09/14 00:28:41;;;;;;;10.38;4.05;;;;;;;6.88;100.00;100717.13;4994924;28;20037;-75
2022/09/14 00:31:07;;;;;;;14.88;4.13;;;;;;;6.91;100.00;100727.50;4977960;28;20038;-77
2022/09/14 00:33:33;;;;;;;9.98;4.47;;;;;;;6.82;100.00;100709.69;5007865;28;20038;-78
2022/09/14 00:36:07;;;;;;;9.13;4.40;;;;;;;6.80;100.00;100717.03;4990133;28;20033;-77
2022/09/14 00:38:33;;;;;;;7.85;4.20;;;;;;;6.69;100.00;100717.25;5008962;28;20036;-77
2022/09/14 00:40:59;;;;;;;10.50;4.85;;;;;;;6.60;100.00;100727.03;4980740;28;20387;-76
2022/09/14 00:43:25;;;;;;;10.93;5.07;;;;;;;6.53;100.00;100713.41;4986301;28;20036;-76
2022/09/14 00:45:52;;;;;;;9.40;4.07;;;;;;;6.50;100.00;100708.38;5003704;28;20026;-76
2022/09/14 00:48:18;;;;;;;10.80;4.82;;;;;;;6.43;100.00;100710.00;4991426;28;20447;-76
2022/09/14 00:50:43;;;;;;;8.60;3.95;;;;;;;6.46;100.00;100701.69;4988365;28;20038;-76
2022/09/14 00:53:09;;;;;;;9.13;4.75;;;;;;;6.50;100.00;100708.38;4992713;28;20095;-76
2022/09/14 00:55:35;;;;;;;7.00;3.67;;;;;;;6.44;100.00;100702.81;4988076;28;20041;-76
2022/09/14 00:58:01;;;;;;;6.43;3.30;;;;;;;6.47;100.00;100703.34;5007376;28;20052;-76
2022/09/14 01:00:28;;;;;;;8.40;3.50;;;;;;;6.51;100.00;100695.84;5007248;28;20443;-75
2022/09/14 01:02:54;;;;;;;10.02;3.97;;;;;;;6.55;100.00;100691.91;4976729;28;20053;-77
2022/09/14 01:05:25;;;;;;;9.02;3.35;;;;;;;6.50;100.00;100703.03;4977772;28;20064;-76
2022/09/14 01:08:11;;;;;;;8.65;3.72;;;;;;;6.51;100.00;100710.09;4980408;28;21806;-76
2022/09/14 01:10:43;;;;;;;6.40;3.67;;;;;;;6.51;100.00;100706.53;4991289;28;20043;-77
2022/09/14 01:13:30;;;;;;;9.38;3.50;;;;;;;6.43;100.00;100701.97;5023687;28;20084;-76
2022/09/14 01:16:04;;;;;;;6.82;3.90;;;;;;;6.47;100.00;100699.84;5023851;28;20480;-75
2022/09/14 01:18:42;;;;;;;9.60;3.85;;;;;;;6.46;100.00;100701.69;5005394;28;20048;-76
2022/09/14 01:21:10;;;;;;;6.45;3.63;;;;;;;6.47;100.00;100705.19;4988653;28;20038;-75
2022/09/14 01:23:50;;;;;;;8.23;3.55;;;;;;;6.38;100.00;100690.91;4969782;28;20496;-76
2022/09/14 01:26:45;;;;;;;9.85;4.00;;;;;;;6.47;100.00;100697.16;5006692;28;20037;-77
2022/09/14 01:29:15;;;;;;;10.10;3.63;;;;;;;6.37;100.00;100707.91;5008501;28;20030;-76
2022/09/14 01:31:45;;;;;;;13.18;4.20;;;;;;;6.29;100.00;100707.81;5006950;28;20050;-76
2022/09/14 01:34:30;;;;;;;8.38;4.03;;;;;;;6.25;100.00;100704.63;4988443;28;20033;-76
2022/09/14 01:37:13;;;;;;;11.68;4.13;;;;;;;6.22;100.00;100693.38;5001136;28;20478;-76
2022/09/14 01:39:52;;;;;;;7.40;3.53;;;;;;;6.21;100.00;100705.06;4988025;28;20120;-76
2022/09/14 01:42:20;;;;;;;6.75;3.75;;;;;;;6.19;100.00;100701.69;4990845;28;20484;-75
2022/09/14 01:44:48;;;;;;;12.95;5.20;;;;;;;6.29;100.00;100705.16;4987002;28;20404;-75
2022/09/14 01:47:22;;;;;;;13.70;4.35;;;;;;;6.35;100.00;100705.41;4972022;28;20041;-75
2022/09/14 01:50:25;;;;;;;10.73;4.25;;;;;;;6.32;100.00;100704.84;5012795;28;20033;-77
2022/09/14 01:52:55;;;;;;;11.57;4.22;;;;;;;6.29;100.00;100702.47;4946750;28;20090;-75
2022/09/14 01:55:26;;;;;;;7.78;3.38;;;;;;;6.34;100.00;100709.03;4994803;28;20038;-75
2022/09/14 01:58:06;;;;;;;8.88;4.03;;;;;;;6.33;100.00;100706.53;4982173;28;20030;-76
2022/09/14 02:00:32;;;;;;;8.38;4.20;;;;;;;6.23;100.00;100689.72;5020392;28;20121;-75
2022/09/14 02:03:05;;;;;;;7.65;3.10;;;;;;;6.62;100.00;100705.53;4980035;28;20510;-76
2022/09/14 02:05:48;;;;;;;10.35;3.97;;;;;;;6.89;100.00;100710.78;5002414;28;20058;-77
2022/09/14 02:08:14;;;;;;;15.18;3.78;;;;;;;7.21;100.00;100704.88;4983345;28;20547;-76
2022/09/14 02:10:40;;;;;;;13.80;4.05;;;;;;;7.41;100.00;100697.50;4963963;28;20038;-76
2022/09/14 02:13:07;;;;;;;13.23;3.67;;;;;;;7.57;100.00;100696.78;4974544;28;20069;-75
2022/09/14 02:15:34;;;;;;;6.30;2.47;;;;;;;7.70;100.00;100709.72;4970109;28;20036;-76
2022/09/14 02:18:00;;;;;;;19.25;4.22;;;;;;;7.88;100.00;100697.09;5004702;28;20033;-75
2022/09/14 02:20:30;;;;;;;14.70;3.55;;;;;;;7.89;100.00;100708.66;5001581;28;20099;-75
2022/09/14 02:22:56;;;;;;;8.43;2.60;;;;;;;7.73;100.00;100685.31;4989803;28;20041;-75
2022/09/14 02:25:21;;;;;;;13.65;4.10;;;;;;;7.74;100.00;100699.53;4987326;28;20393;-75
2022/09/14 02:27:47;;;;;;;11.80;3.78;;;;;;;7.63;100.00;100700.66;4990056;28;20060;-77
2022/09/14 02:30:15;;;;;;;13.73;4.10;;;;;;;7.56;100.00;100689.72;5002186;28;20088;-77
2022/09/14 02:33:07;;;;;;;10.45;4.05;;;;;;;7.38;100.00;100692.47;4988025;28;20607;-75
2022/09/14 02:35:43;;;;;;;16.90;5.78;;;;;;;7.20;100.00;100684.47;4967884;28;20033;-76
2022/09/14 02:38:28;;;;;;;14.82;4.90;;;;;;;7.12;100.00;100686.22;4999914;28;20492;-76
2022/09/14 02:41:06;;;;;;;16.15;4.97;;;;;;;6.94;100.00;100675.59;4991164;28;20064;-76
2022/09/14 02:43:40;;;;;;;18.13;6.15;;;;;;;6.90;100.00;100688.41;4976306;28;20037;-76
2022/09/14 02:46:16;;;;;;;11.48;5.28;;;;;;;6.77;100.00;100688.81;5005323;28;20128;-75
2022/09/14 02:49:03;;;;;;;19.08;5.20;;;;;;;6.54;100.00;100669.72;4971490;28;20926;-76
2022/09/14 02:51:43;;;;;;;15.85;4.85;;;;;;;6.45;100.00;100672.44;4986003;28;20036;-76
2022/09/14 02:54:16;;;;;;;8.45;4.32;;;;;;;6.50;100.00;100689.69;5004213;28;20034;-76
2022/09/14 02:56:43;;;;;;;9.00;4.28;;;;;;;6.35;100.00;100689.38;4984756;28;20125;-76
2022/09/14 02:59:09;;;;;;;10.90;4.45;;;;;;;6.32;100.00;100688.81;4976845;28;20053;-75
2022/09/14 03:01:35;;;;;;;14.48;4.47;;;;;;;6.23;100.00;100695.06;5006361;28;20092;-76
2022/09/14 03:04:01;;;;;;;12.93;3.90;;;;;;;6.20;100.00;100690.88;4971288;28;20033;-76
2022/09/14 03:06:26;;;;;;;9.68;3.65;;;;;;;6.28;100.00;100687.44;4990772;28;20034;-76
2022/09/14 03:08:52;;;;;;;14.32;4.40;;;;;;;6.32;100.00;100678.97;4985347;28;20123;-75
2022/09/14 03:11:18;;;;;;;11.70;3.72;;;;;;;6.38;100.00;100683.72;4976777;28;20034;-75
2022/09/14 03:13:43;;;;;;;9.57;3.50;;;;;;;6.38;100.00;100677.56;4996901;28;20072;-76
2022/09/14 03:16:11;;;;;;;9.07;3.55;;;;;;;6.47;100.00;100691.81;4989230;28;20050;-76
2022/09/14 03:18:38;;;;;;;6.70;3.70;;;;;;;6.43;100.00;100691.31;5002870;28;20100;-76
2022/09/14 03:21:14;;;;;;;11.52;4.07;;;;;;;6.47;100.00;100679.31;5006797;28;20049;-76
2022/09/14 03:23:46;;;;;;;10.55;4.60;;;;;;;6.59;100.00;100682.63;5004053;28;20030;-76
2022/09/14 03:26:16;;;;;;;10.80;4.20;;;;;;;6.72;100.00;100677.72;4993291;28;20149;-75
2022/09/14 03:28:42;;;;;;;8.35;3.60;;;;;;;6.77;100.00;100674.56;4970711;28;20036;-76
2022/09/14 03:31:10;;;;;;;9.48;3.65;;;;;;;6.82;100.00;100683.81;4984905;28;20037;-76
2022/09/14 03:33:35;;;;;;;8.93;3.92;;;;;;;6.67;100.00;100665.78;5004689;28;20026;-76
2022/09/14 03:36:09;;;;;;;8.38;3.10;;;;;;;6.80;100.00;100682.28;4994463;28;20091;-76
2022/09/14 03:38:35;;;;;;;11.32;3.33;;;;;;;6.80;100.00;100679.63;4991432;28;20528;-75
2022/09/14 03:41:00;;;;;;;8.68;3.55;;;;;;;6.76;100.00;100681.75;4989577;28;20048;-75
2022/09/14 03:43:26;;;;;;;8.95;3.72;;;;;;;6.78;100.00;100673.59;4989913;28;20034;-75
2022/09/14 03:45:51;;;;;;;7.88;3.35;;;;;;;6.79;100.00;100669.94;4977027;28;20026;-76
2022/09/14 03:48:17;;;;;;;10.35;3.47;;;;;;;6.85;100.00;100680.00;4982389;28;20040;-75
2022/09/14 03:50:43;;;;;;;11.65;4.13;;;;;;;6.86;100.00;100671.00;4992245;28;20038;-74
2022/09/14 03:53:08;;;;;;;12.73;4.63;;;;;;;6.91;100.00;100662.53;4989053;28;20058;-74
2022/09/14 03:55:34;;;;;;;9.38;3.33;;;;;;;7.00;100.00;100667.78;4975907;28;20046;-75
2022/09/14 03:58:00;;;;;;;10.57;3.78;;;;;;;7.12;100.00;100662.16;5010493;28;20048;-75
2022/09/14 04:00:25;;;;;;;10.73;3.17;;;;;;;7.15;100.00;100661.88;4969337;28;20038;-74
2022/09/14 04:02:51;;;;;;;10.75;3.30;;;;;;;7.07;100.00;100651.97;4993331;28;20030;-75
2022/09/14 04:05:17;;;;;;;13.02;4.40;;;;;;;7.31;100.00;100655.81;4997725;28;20048;-75
2022/09/14 04:07:43;;;;;;;14.23;4.15;;;;;;;7.49;100.00;100641.38;4992922;28;20432;-75
2022/09/14 04:10:09;;;;;;;10.75;4.30;;;;;;;7.67;100.00;100660.03;4991629;28;20034;-75
2022/09/14 04:12:36;;;;;;;13.32;4.70;;;;;;;7.75;100.00;100655.72;5005304;28;20106;-74
2022/09/14 04:15:02;;;;;;;18.50;4.43;;;;;;;7.92;100.00;100655.63;5011448;28;20096;-74
2022/09/14 04:17:28;;;;;;;12.45;4.38;;;;;;;8.17;100.00;100666.41;4977931;28;20045;-74
2022/09/14 04:19:54;;;;;;;15.43;5.38;;;;;;;8.48;100.00;100658.66;4993707;28;20040;-77
2022/09/14 04:22:19;;;;;;;6.53;2.92;;;;;;;8.77;100.00;100668.09;4977565;28;20398;-79
2022/09/14 04:24:45;;;;;;;12.30;4.65;;;;;;;8.91;100.00;100659.38;4993215;28;20054;-76
2022/09/14 04:27:10;;;;;;;11.13;5.03;;;;;;;8.96;100.00;100653.50;4989434;28;20480;-75
2022/09/14 04:29:36;;;;;;;15.55;4.50;;;;;;;9.02;100.00;100659.06;4977637;28;20041;-76
2022/09/14 04:32:03;;;;;;;18.15;5.60;;;;;;;9.05;100.00;100657.03;4977928;28;20036;-75
2022/09/14 04:34:29;;;;;;;16.33;5.22;;;;;;;9.06;100.00;100659.56;4990082;28;20041;-76
2022/09/14 04:36:54;;;;;;;16.10;4.88;;;;;;;9.08;100.00;100654.03;5008065;28;20392;-75
2022/09/14 04:39:20;;;;;;;14.68;5.20;;;;;;;9.18;100.00;100670.75;5002995;28;20044;-75
2022/09/14 04:41:46;;;;;;;19.15;5.35;;;;;;;9.20;100.00;100664.22;4994242;28;20041;-77
2022/09/14 04:44:11;;;;;;;12.18;5.03;;;;;;;9.25;100.00;100666.41;5008054;28;20042;-76
2022/09/14 04:46:41;;;;;;;21.33;5.45;;;;;;;9.31;100.00;100659.53;4977000;28;20229;-75
2022/09/14 04:49:07;;;;;;;15.75;4.95;;;;;;;9.35;100.00;100660.88;5006696;28;20120;-75
2022/09/14 04:51:34;;;;;;;10.93;4.70;;;;;;;9.41;100.00;100677.13;4978100;28;20443;-75
2022/09/14 04:54:01;;;;;;;13.02;4.22;;;;;;;9.49;100.00;100680.81;5007880;28;20034;-75
2022/09/14 04:56:29;;;;;;;9.95;4.20;;;;;;;9.54;100.00;100684.66;4992410;28;20464;-76
2022/09/14 04:59:00;;;;;;;20.67;5.28;;;;;;;9.65;100.00;100689.66;4994409;28;20040;-76
2022/09/14 05:01:28;;;;;;;13.52;4.78;;;;;;;9.71;100.00;100676.53;5007528;28;20603;-76
2022/09/14 05:03:54;;;;;;;12.95;5.00;;;;;;;9.75;100.00;100672.53;4976880;28;20029;-76
2022/09/14 05:06:25;;;;;;;23.65;6.30;;;;;;;9.73;100.00;100667.31;4976490;28;20036;-77
2022/09/14 05:08:52;;;;;;;17.25;4.50;;;;;;;9.80;100.00;100675.53;5003353;28;20033;-76
2022/09/14 05:11:23;;;;;;;19.20;5.45;;;;;;;9.80;100.00;100665.63;4978552;28;20472;-76
2022/09/14 05:13:49;;;;;;;12.02;4.28;;;;;;;9.81;100.00;100653.03;4992532;28;20507;-75
2022/09/14 05:16:17;;;;;;;12.40;4.78;;;;;;;9.83;100.00;100645.63;4993381;28;20046;-75
2022/09/14 05:18:44;;;;;;;12.25;6.82;;;;;;;9.74;100.00;100626.03;4975617;28;20041;-76
2022/09/14 05:21:11;;;;;;;11.30;4.05;;;;;;;9.87;100.00;100641.56;4973206;28;20034;-76
2022/09/14 05:23:37;;;;;;;12.90;5.10;;;;;;;9.90;100.00;100644.78;5001588;28;20040;-76
2022/09/14 05:26:04;;;;;;;13.30;5.72;;;;;;;9.94;100.00;100642.56;5010371;28;20030;-76
2022/09/14 05:28:30;;;;;;;14.20;5.22;;;;;;;9.94;100.00;100647.09;4990598;28;20038;-75
2022/09/14 05:30:56;;;;;;;16.88;5.57;;;;;;;9.83;100.00;100632.22;4974695;28;20040;-76
2022/09/14 05:33:22;;;;;;;13.60;5.25;;;;;;;9.82;100.00;100633.22;5005646;28;20026;-76
2022/09/14 05:35:48;;;;;;;18.23;4.95;;;;;;;9.78;100.00;100656.88;4995367;28;20042;-76
2022/09/14 05:38:14;;;;;;;13.27;5.15;;;;;;;9.64;100.00;100636.97;5010081;28;20618;-76
2022/09/14 05:40:40;;;;;;;13.13;4.05;;;;;;;9.75;100.00;100661.78;4975198;28;20124;-76
2022/09/14 05:43:06;;;;;;;20.73;5.50;;;;;;;9.76;100.00;100655.38;4991242;28;20038;-76
2022/09/14 05:45:32;;;;;;;15.95;4.80;;;;;;;9.72;100.00;100651.38;4988893;28;20030;-77
2022/09/14 05:48:03;;;;;;;9.57;4.75;;;;;;;9.76;100.00;100658.91;4991456;28;20029;-76
2022/09/14 05:50:32;;;;;;;19.20;5.55;;;;;;;9.78;100.00;100666.81;5005006;28;20029;-76
2022/09/14 05:52:59;;;;;;;15.30;4.47;;;;;;;9.76;100.00;100672.34;5008426;28;20077;-77
2022/09/14 05:55:25;;;;;;;11.63;4.93;;;;;;;9.76;100.00;100674.19;5007440;28;20105;-76
2022/09/14 05:57:51;;;;;;;12.35;4.72;;;;;;;9.77;100.00;100670.50;5005474;28;20121;-77
2022/09/14 06:00:17;;;;;;;9.75;4.22;;;;;;;9.79;100.00;100676.53;4990392;28;20095;-76
2022/09/14 06:02:50;;;;;;;12.18;4.40;;;;;;;9.80;100.00;100671.00;5006851;28;20403;-76
2022/09/14 06:05:16;;;;;;;;;;;;;;;9.86;100.00;100678.34;4988596;28;21775;-73
2022/09/14 06:07:42;;;;;;;9.00;3.95;;;;;;;9.92;100.00;100684.88;4987400;28;19977;-77
2022/09/14 06:10:09;;;;;;;9.40;3.60;;;;;;;9.91;100.00;100673.28;4986044;28;20041;-76
2022/09/14 06:12:35;;;;;;;8.55;3.63;;;;;;;10.00;100.00;100681.31;4991476;28;20072;-76
2022/09/14 06:15:00;;;;;;;15.38;4.32;;;;;;;9.99;100.00;100668.91;4971961;28;20054;-76
2022/09/14 06:17:28;;;;;;;17.13;3.78;;;;;;;10.11;100.00;100675.59;4974018;28;20162;-76
2022/09/14 06:19:54;;;;;;;9.70;4.35;;;;;;;10.13;100.00;100671.72;4987032;28;20038;-77
2022/09/14 06:22:20;;;;;;;6.13;3.42;;;;;;;10.29;100.00;100686.94;4988578;28;20095;-77
2022/09/14 06:24:46;;;;;;;12.45;4.35;;;;;;;10.37;100.00;100693.28;4992505;28;20080;-76
2022/09/14 06:27:12;;;;;;;12.82;4.30;;;;;;;10.42;100.00;100702.47;4991131;28;20045;-77
2022/09/14 06:29:37;;;;;;;12.43;4.40;;;;;;;10.40;100.00;100688.41;4990190;28;20025;-75
2022/09/14 06:32:03;;;;;;;15.70;4.00;;;;;;;10.48;100.00;100701.78;5003318;28;20026;-76
2022/09/14 06:34:29;;;;;;;9.45;3.65;;;;;;;10.56;100.00;100706.28;4975492;28;20042;-74
2022/09/14 06:36:55;;;;;;;11.20;3.65;;;;;;;10.64;100.00;100711.63;4976762;28;20042;-76
2022/09/14 06:39:21;;;;;;;7.97;3.00;;;;;;;10.57;100.00;100689.97;4967505;28;20436;-77
2022/09/14 06:41:47;;;;;;;8.73;3.35;;;;;;;10.75;100.00;100707.69;4986449;28;20029;-76
2022/09/14 06:44:13;;;;;;;16.50;4.10;;;;;;;10.80;100.00;100708.00;4989632;28;20038;-76
2022/09/14 06:46:38;;;;;;;10.77;3.38;;;;;;;10.85;100.00;100713.66;4973769;28;20041;-77
2022/09/14 06:49:07;;;;;;;11.57;3.90;;;;;;;10.89;100.00;100720.34;4978054;28;20029;-73
2022/09/14 06:51:41;;;;;;;12.57;3.30;;;;;;;10.93;100.00;100713.59;5006205;28;20121;-73
2022/09/14 06:54:08;;;;;;;7.88;3.40;;;;;;;10.96;100.00;100721.31;4989238;28;20038;-77
2022/09/14 06:56:36;;;;;;;11.70;3.85;;;;;;;11.05;100.00;100729.31;5009066;28;20105;-76
2022/09/14 06:59:02;;;;;;;8.63;3.10;;;;;;;11.09;100.00;100723.41;4970328;28;20248;-76
2022/09/14 07:01:28;;;;;;;5.70;2.75;;;;;;;11.14;100.00;100718.34;4986191;28;20048;-76
2022/09/14 07:03:54;;;;;;;7.75;2.83;;;;;;;11.19;100.00;100720.47;5004296;28;20040;-76
2022/09/14 07:06:23;;;;;;;8.13;2.70;;;;;;;11.23;100.00;100728.00;4991025;28;20037;-77
2022/09/14 07:08:52;;;;;;;9.50;3.10;;;;;;;11.29;100.00;100730.97;4972634;28;20061;-78
2022/09/14 07:11:20;;;;;;;9.80;2.85;;;;;;;11.38;100.00;100732.59;4992499;28;20371;-76
2022/09/14 07:13:46;;;;;;;6.55;2.50;;;;;;;11.47;100.00;100727.97;5002295;28;20045;-77
2022/09/14 07:16:13;;;;;;;11.43;3.15;;;;;;;11.57;100.00;100736.63;4965792;28;20052;-76
2022/09/14 07:18:39;;;;;;;5.85;2.17;;;;;;;11.65;100.00;100731.16;4988905;28;20037;-76
2022/09/14 07:21:06;;;;;;;8.52;2.50;;;;;;;11.76;100.00;100730.72;5003414;28;20042;-75
2022/09/14 07:23:32;;;;;;;6.93;2.55;;;;;;;11.91;100.00;100724.50;5003757;28;20075;-75
2022/09/14 07:26:04;;;;;;;4.32;1.80;;;;;;;12.04;100.00;100733.66;4987989;28;20042;-76
2022/09/14 07:28:30;;;;;;;3.17;1.42;;;;;;;12.04;100.00;100730.09;4972068;28;20042;-76
2022/09/14 07:30:56;;;;;;;4.43;2.55;;;;;;;12.03;100.00;100736.50;4990010;28;20594;-75
2022/09/14 07:33:22;;;;;;;11.45;5.13;;;;;;;12.06;100.00;100734.28;5004772;28;20080;-75
2022/09/14 07:35:48;;;;;;;18.75;6.28;;;;;;;12.07;100.00;100737.81;4992040;28;20037;-75
2022/09/14 07:38:13;;;;;;;4.68;2.35;;;;;;;12.12;100.00;100745.34;4985700;28;20400;-75
2022/09/14 07:40:39;;;;;;;5.28;2.22;;;;;;;12.11;100.00;100747.19;4967900;28;20469;-75
2022/09/14 07:43:05;;;;;;;3.60;1.85;;;;;;;12.22;100.00;100744.03;4994815;28;20541;-76
2022/09/14 07:45:31;;;;;;;3.55;1.90;;;;;;;12.32;100.00;100749.97;4990003;28;20365;-75
2022/09/14 07:47:56;;;;;;;2.28;1.23;;;;;;;12.38;100.00;100752.94;4971652;28;20491;-77
2022/09/14 07:50:22;;;;;;;4.88;1.30;;;;;;;12.34;100.00;100747.09;4974118;28;20025;-74
2022/09/14 07:52:50;;;;;;;4.95;1.33;;;;;;;12.39;100.00;100754.63;4968405;28;20026;-75
2022/09/14 07:55:16;;;;;;;3.38;1.20;;;;;;;12.44;100.00;100754.91;4988700;28;20049;-74
2022/09/14 07:57:41;;;;;;;4.45;1.38;;;;;;;12.40;100.00;100740.94;4972416;28;20018;-74
2022/09/14 08:00:09;;;;;;;3.83;1.35;;;;;;;12.50;100.00;100759.53;4990049;28;20384;-74
2022/09/14 08:02:35;;;;;;;1.10;0.80;;;;;;;12.51;100.00;100758.50;5007759;28;20045;-74
2022/09/14 08:05:03;;;;;;;5.03;1.95;;;;;;;12.50;100.00;100751.44;4977762;28;20037;-74
2022/09/14 08:07:29;;;;;;;8.82;2.25;;;;;;;12.38;100.00;100750.25;4986279;28;20473;-74
2022/09/14 08:09:55;;;;;;;8.00;2.05;;;;;;;12.23;100.00;100753.81;5011356;28;20427;-75
2022/09/14 08:12:21;;;;;;;5.22;1.58;;;;;;;12.17;100.00;100754.56;5013042;28;20030;-74
2022/09/14 08:14:46;;;;;;;3.75;1.30;;;;;;;12.08;100.00;100744.88;5012990;28;20022;-74
2022/09/14 08:17:12;;;;;;;5.18;1.80;;;;;;;12.07;100.00;100762.09;4976966;28;20056;-74
2022/09/14 08:19:40;;;;;;;3.97;1.50;;;;;;;12.08;100.00;100761.88;4974469;28;20041;-83
2022/09/14 08:22:06;;;;;;;5.28;1.92;;;;;;;12.09;100.00;100746.53;4992463;28;20038;-82
2022/09/14 08:24:32;;;;;;;10.20;2.15;;;;;;;12.10;100.00;100756.31;4983721;28;20053;-79
2022/09/14 08:26:58;;;;;;;2.63;1.38;;;;;;;12.23;100.00;100748.41;5006778;28;20523;-81
2022/09/14 08:29:26;;;;;;;7.80;2.15;;;;;;;12.27;100.00;100755.09;5008986;28;20028;-78
2022/09/14 08:31:52;;;;;;;4.15;1.75;;;;;;;12.26;100.00;100747.22;4993399;28;20034;-82
2022/09/14 08:34:19;;;;;;;5.47;2.03;;;;;;;12.29;100.00;100738.72;4996143;28;20037;-79
2022/09/14 08:36:46;;;;;;;7.75;2.20;;;;;;;12.46;100.00;100751.00;5007969;28;20053;-81
2022/09/14 08:39:14;;;;;;;8.73;2.08;;;;;;;12.48;100.00;100743.53;4976759;28;20116;-79
2022/09/14 08:41:46;;;;;;;14.15;3.15;;;;;;;12.73;100.00;100756.72;4986997;28;20476;-79
2022/09/14 08:44:38;;;;;;;10.82;2.88;;;;;;;12.84;100.00;100763.47;4993182;28;20116;-77
2022/09/14 08:47:05;;;;;;;13.25;3.45;;;;;;;12.88;100.00;100764.75;5020408;28;20044;-77
2022/09/14 08:49:36;;;;;;;10.32;2.55;;;;;;;12.86;100.00;100764.09;5005632;28;20026;-78
2022/09/14 08:52:02;;;;;;;9.52;3.60;;;;;;;12.83;100.00;100764.47;5002938;28;20025;-76
2022/09/14 08:54:28;;;;;;;7.78;3.10;;;;;;;12.87;100.00;100765.78;4988541;28;20058;-77
2022/09/14 08:57:15;;;;;;;8.07;2.42;;;;;;;12.88;100.00;100767.44;5000306;28;20496;-77
2022/09/14 08:59:52;;;;;;;8.15;3.20;;;;;;;13.04;100.00;100764.50;4984420;28;20040;-78
2022/09/14 09:02:20;;;;;;;6.03;2.35;;;;;;;13.26;100.00;100773.50;4988304;28;20116;-76
2022/09/14 09:04:56;;;;;;;12.98;3.53;;;;;;;13.43;100.00;100770.53;5015395;28;20035;-77
2022/09/14 09:07:47;;;;;;;13.10;3.50;;;;;;;13.77;100.00;100770.59;5003034;28;20476;-78
2022/09/14 09:10:13;;;;;;;7.60;3.03;;;;;;;14.13;100.00;100766.03;5012754;28;20511;-80
2022/09/14 09:12:44;;;;;;;11.90;3.70;;;;;;;14.11;100.00;100777.06;4985515;28;20041;-77
2022/09/14 09:15:29;;;;;;;9.10;2.80;;;;;;;14.07;100.00;100770.38;5012481;28;20028;-78
2022/09/14 09:18:07;;;;;;;15.05;3.63;;;;;;;14.24;100.00;100773.63;5006255;28;20484;-78
2022/09/14 09:20:36;;;;;;;13.90;3.40;;;;;;;14.26;100.00;100769.69;5001491;28;21538;-80
2022/09/14 09:23:12;;;;;;;14.10;3.67;;;;;;;14.48;100.00;100783.94;5014326;28;20041;-76
2022/09/14 09:26:01;;;;;;;12.02;3.63;;;;;;;14.84;100.00;100779.31;5010084;28;20511;-77
2022/09/14 09:28:27;;;;;;;9.20;4.53;;;;;;;15.15;100.00;100779.59;4981168;28;20025;-76
2022/09/14 09:30:56;;;;;;;13.50;3.50;;;;;;;15.51;100.00;100777.56;4992936;28;20461;-79
2022/09/14 09:33:23;;;;;;;13.23;4.00;;;;;;;15.61;100.00;100778.81;4984038;28;20133;-77
2022/09/14 09:35:50;;;;;;;8.43;3.20;;;;;;;15.48;98.29;100772.53;4970866;28;20116;-78
2022/09/14 09:38:20;;;;;;;13.23;4.07;;;;;;;15.41;96.56;100769.03;5003925;28;20064;-77
2022/09/14 09:40:56;;;;;;;10.90;2.97;;;;;;;15.26;94.37;100791.69;4984303;28;20480;-78
2022/09/14 09:43:21;;;;;;;15.63;3.90;;;;;;;15.17;93.10;100792.94;5005951;28;20041;-76
2022/09/14 09:45:54;;;;;;;9.88;3.17;;;;;;;15.31;93.95;100783.78;5003284;28;20042;-77
2022/09/14 09:48:37;;;;;;;12.65;3.10;;;;;;;15.38;94.56;100781.09;5002909;28;20108;-76
2022/09/14 09:51:05;;;;;;;12.02;3.75;;;;;;;15.32;94.22;100799.03;5005395;28;20132;-77
2022/09/14 09:53:33;;;;;;;9.52;3.00;;;;;;;15.30;93.38;100792.13;4989862;28;20034;-76
2022/09/14 09:55:59;;;;;;;12.32;4.07;;;;;;;15.42;93.14;100793.19;5022413;28;20068;-78
2022/09/14 09:58:33;;;;;;;14.55;4.38;;;;;;;15.56;91.98;100791.34;4991678;28;20095;-77
2022/09/14 10:01:17;;;;;;;14.10;3.45;;;;;;;15.69;88.89;100791.38;5009620;28;20038;-76
2022/09/14 10:03:50;;;;;;;14.23;3.20;;;;;;;15.74;90.05;100788.84;5000295;28;20069;-76
2022/09/14 10:06:15;;;;;;;16.40;3.72;;;;;;;15.69;91.00;100785.09;4992419;28;20064;-77
2022/09/14 10:08:46;;;;;;;8.85;3.25;;;;;;;15.52;90.81;100787.34;4968616;28;20054;-78
2022/09/14 10:11:29;;;;;;;12.77;3.13;;;;;;;15.38;91.51;100773.81;5004563;28;20431;-77
2022/09/14 10:13:54;;;;;;;15.15;3.25;;;;;;;15.45;89.59;100786.50;5000290;28;20062;-77
2022/09/14 10:16:20;;;;;;;12.95;3.40;;;;;;;15.45;88.06;100762.94;4988493;28;20076;-76
2022/09/14 10:18:48;;;;;;;9.98;3.15;;;;;;;15.81;86.60;100789.69;5004089;28;20041;-77
2022/09/14 10:21:19;;;;;;;6.25;2.75;;;;;;;16.23;83.78;100794.84;4985926;28;20036;-78
2022/09/14 10:23:45;;;;;;;9.00;2.78;;;;;;;16.36;79.37;100781.25;4999046;28;20042;-76
2022/09/14 10:26:10;;;;;;;10.68;3.42;;;;;;;16.59;77.73;100769.91;5021156;28;20404;-77
2022/09/14 10:28:44;;;;;;;12.77;3.20;;;;;;;16.85;77.22;100778.97;5007878;28;20030;-78
2022/09/14 10:31:10;;;;;;;12.25;2.80;;;;;;;17.12;74.80;100776.94;4971517;28;20380;-78
2022/09/14 10:33:36;;;;;;;16.60;3.35;;;;;;;17.40;72.45;100782.00;5004552;28;20484;-79
2022/09/14 10:36:05;;;;;;;13.88;3.20;;;;;;;17.79;71.14;100789.03;4980817;28;20047;-81
2022/09/14 10:38:44;;;;;;;10.93;3.00;;;;;;;18.14;67.18;100766.72;4992985;28;20038;-81
2022/09/14 10:41:30;;;;;;;12.48;3.33;;;;;;;18.02;66.76;100777.53;5005301;28;20552;-82
2022/09/14 10:44:04;;;;;;;10.85;3.03;;;;;;;17.69;69.49;100785.94;5008728;28;20369;-80
2022/09/14 10:46:44;;;;;;;7.28;3.10;;;;;;;17.53;70.76;100791.94;5004161;28;20369;-81
2022/09/14 10:49:23;;;;;;;9.93;2.35;;;;;;;17.44;68.74;100794.09;5008327;28;20038;-81
2022/09/14 10:52:30;;;;;;;11.88;3.22;;;;;;;17.40;70.10;100798.28;5004552;28;20120;-82
2022/09/14 10:54:58;;;;;;;14.38;3.42;;;;;;;17.59;71.20;100796.47;4980108;28;20064;-81
2022/09/14 10:57:55;;;;;;;10.70;3.20;;;;;;;17.77;68.03;100793.00;5006886;28;20269;-81
2022/09/14 11:00:24;;;;;;;6.75;2.92;;;;;;;18.06;66.48;100796.13;4991006;28;20407;-82
2022/09/14 11:03:23;;;;;;;7.78;2.75;;;;;;;18.65;63.40;100805.50;4985231;28;20412;-82
2022/09/14 11:06:24;;;;;;;13.13;2.83;;;;;;;18.85;63.52;100805.31;5003645;28;20050;-81
2022/09/14 11:08:55;;;;;;;7.97;2.92;;;;;;;18.79;63.34;100796.16;4990512;28;20034;-82
2022/09/14 11:11:40;;;;;;;11.65;2.92;;;;;;;20.37;57.76;100798.47;4993635;28;20126;-82
2022/09/14 11:14:25;;;;;;;11.50;3.20;;;;;;;21.87;51.45;100790.13;4997215;28;20018;-83
2022/09/14 11:17:11;;;;;;;10.63;3.38;;;;;;;21.22;51.87;100792.28;5000235;28;20052;-82
2022/09/14 11:19:51;;;;;;;14.60;3.15;;;;;;;20.76;55.73;100790.56;4981795;28;20046;-81
2022/09/14 11:22:29;;;;;;;6.82;2.83;;;;;;;21.07;53.33;100792.00;5021877;28;20049;-82
2022/09/14 11:25:23;;;;;;;7.65;3.17;;;;;;;20.43;53.96;100783.88;5000736;28;20183;-81
2022/09/14 11:27:56;;;;;;;6.07;2.67;;;;;;;19.96;56.68;100778.44;5009355;28;20045;-82
2022/09/14 11:30:26;;;;;;;13.68;3.67;;;;;;;20.07;55.61;100794.00;4970674;28;20042;-82
2022/09/14 11:32:56;;;;;;;9.38;2.75;;;;;;;19.58;57.95;100796.03;5009974;28;20061;-81